Time,TemperatureF,DewpointF,PressureIn,WindDirection,WindDirectionDegrees,WindSpeedMPH,WindSpeedGustMPH,Humidity,HourlyPrecipIn,Conditions,Clouds,dailyrainin,SoftwareType,DateUTC
2013-02-13 00:02:00,32.2,21.0,29.88,SSW,202,3.0,5.0,63,0.00,,,0.00,meteohub,2013-02-13 05:02:00,
2013-02-13 00:07:00,32.2,21.0,29.88,SW,225,0.0,6.0,63,0.00,,,0.00,meteohub,2013-02-13 05:07:00,
2013-02-13 00:12:00,32.0,20.5,29.88,West,270,0.0,6.0,62,0.00,,,0.00,meteohub,2013-02-13 05:12:00,
2013-02-13 00:17:00,32.0,20.5,29.91,WSW,248,3.0,5.0,62,0.00,,,0.00,meteohub,2013-02-13 05:17:00,
2013-02-13 00:22:00,31.8,20.3,29.91,WSW,248,2.0,5.0,62,0.00,,,0.00,meteohub,2013-02-13 05:22:00,
2013-02-13 00:27:00,31.8,20.3,29.91,NW,315,2.0,5.0,62,0.00,,,0.00,meteohub,2013-02-13 05:27:00,
2013-02-13 00:32:00,31.6,20.1,29.91,South,180,2.0,5.0,62,0.00,,,0.00,meteohub,2013-02-13 05:32:00,
2013-02-13 00:37:00,31.6,20.1,29.91,South,180,2.0,4.0,62,0.00,,,0.00,meteohub,2013-02-13 05:37:00,
2013-02-13 00:42:00,31.6,20.1,29.91,WSW,248,2.0,5.0,62,0.00,,,0.00,meteohub,2013-02-13 05:42:00,
2013-02-13 00:47:00,31.8,20.3,29.88,South,180,1.0,5.0,62,0.00,,,0.00,meteohub,2013-02-13 05:47:00,
2013-02-13 00:52:00,31.6,19.8,29.88,SSW,202,0.0,5.0,61,0.00,,,0.00,meteohub,2013-02-13 05:52:00,
2013-02-13 00:57:00,31.6,19.8,29.88,WSW,248,4.0,4.0,61,0.00,,,0.00,meteohub,2013-02-13 05:57:00,
2013-02-13 01:02:00,31.5,19.6,29.88,East,90,0.0,4.0,61,0.00,,,0.00,meteohub,2013-02-13 06:02:00,
2013-02-13 01:07:00,31.5,19.6,29.88,West,270,0.0,4.0,61,0.00,,,0.00,meteohub,2013-02-13 06:07:00,
2013-02-13 01:12:00,31.3,19.4,29.88,WSW,248,2.0,4.0,61,0.00,,,0.00,meteohub,2013-02-13 06:12:00,
2013-02-13 01:17:00,31.3,19.0,29.88,West,270,0.0,4.0,60,0.00,,,0.00,meteohub,2013-02-13 06:17:00,
2013-02-13 01:22:00,31.3,19.0,29.88,ENE,68,0.0,4.0,60,0.00,,,0.00,meteohub,2013-02-13 06:22:00,
2013-02-13 01:27:00,31.1,18.9,29.88,NW,315,2.0,4.0,60,0.00,,,0.00,meteohub,2013-02-13 06:27:00,
2013-02-13 01:32:00,31.1,18.9,29.88,NNE,22,0.0,4.0,60,0.00,,,0.00,meteohub,2013-02-13 06:32:00,
2013-02-13 01:37:00,31.1,18.5,29.88,East,90,0.0,4.0,59,0.00,,,0.00,meteohub,2013-02-13 06:37:00,
2013-02-13 01:42:00,31.1,18.5,29.88,ESE,112,0.0,4.0,59,0.00,,,0.00,meteohub,2013-02-13 06:42:00,
2013-02-13 01:47:00,31.3,18.7,29.88,NNW,338,1.0,1.0,59,0.00,,,0.00,meteohub,2013-02-13 06:47:00,
2013-02-13 01:52:00,31.3,18.7,29.88,SSW,202,0.0,4.0,59,0.00,,,0.00,meteohub,2013-02-13 06:52:00,
2013-02-13 02:02:00,30.9,18.0,29.88,SW,225,0.0,4.0,58,0.00,,,0.00,meteohub,2013-02-13 07:02:00,
2013-02-13 02:07:00,30.7,17.8,29.88,SSW,202,0.0,3.0,58,0.00,,,0.00,meteohub,2013-02-13 07:07:00,
2013-02-13 02:12:00,30.6,17.6,29.88,WSW,248,1.0,3.0,58,0.00,,,0.00,meteohub,2013-02-13 07:12:00,
2013-02-13 02:17:00,30.4,17.4,29.88,ENE,68,0.0,2.0,58,0.00,,,0.00,meteohub,2013-02-13 07:17:00,
2013-02-13 02:22:00,30.2,17.6,29.88,East,90,0.0,4.0,59,0.00,,,0.00,meteohub,2013-02-13 07:22:00,
2013-02-13 02:27:00,30.2,17.6,29.88,East,90,0.0,4.0,59,0.00,,,0.00,meteohub,2013-02-13 07:27:00,
2013-02-13 02:32:00,30.0,17.4,29.88,SSW,202,0.0,4.0,59,0.00,,,0.00,meteohub,2013-02-13 07:32:00,
2013-02-13 02:37:00,29.8,17.2,29.88,SSW,202,2.0,0.0,59,0.00,,,0.00,meteohub,2013-02-13 07:37:00,
2013-02-13 02:42:00,29.8,17.2,29.88,South,180,0.0,2.0,59,0.00,,,0.00,meteohub,2013-02-13 07:42:00,
2013-02-13 02:47:00,29.7,17.1,29.88,SSW,202,2.0,4.0,59,0.00,,,0.00,meteohub,2013-02-13 07:47:00,
2013-02-13 02:57:00,29.5,17.4,29.88,WSW,248,0.0,4.0,60,0.00,,,0.00,meteohub,2013-02-13 07:57:00,
2013-02-13 03:02:00,29.5,17.4,29.88,SSW,202,3.0,4.0,60,0.00,,,0.00,meteohub,2013-02-13 08:02:00,
2013-02-13 03:07:00,29.5,17.4,29.88,WSW,248,1.0,4.0,60,0.00,,,0.00,meteohub,2013-02-13 08:07:00,
2013-02-13 03:12:00,29.7,18.0,29.88,WSW,248,2.0,3.0,61,0.00,,,0.00,meteohub,2013-02-13 08:12:00,
2013-02-13 03:17:00,29.7,18.0,29.91,West,270,0.0,3.0,61,0.00,,,0.00,meteohub,2013-02-13 08:17:00,
2013-02-13 03:22:00,29.7,18.0,29.91,WSW,248,0.0,3.0,61,0.00,,,0.00,meteohub,2013-02-13 08:22:00,
2013-02-13 03:27:00,29.8,18.1,29.91,SSW,202,2.0,3.0,61,0.00,,,0.00,meteohub,2013-02-13 08:27:00,
2013-02-13 03:32:00,30.0,18.1,29.91,WSW,248,1.0,3.0,61,0.00,,,0.00,meteohub,2013-02-13 08:32:00,
2013-02-13 03:42:00,30.2,18.3,29.91,South,180,0.0,3.0,61,0.00,,,0.00,meteohub,2013-02-13 08:42:00,
2013-02-13 03:47:00,30.4,18.5,29.94,WSW,248,2.0,2.0,61,0.00,,,0.00,meteohub,2013-02-13 08:47:00,
2013-02-13 03:52:00,30.6,18.7,29.94,South,180,0.0,3.0,61,0.00,,,0.00,meteohub,2013-02-13 08:52:00,
2013-02-13 03:57:00,30.6,18.7,29.94,SSW,202,0.0,3.0,61,0.00,,,0.00,meteohub,2013-02-13 08:57:00,
2013-02-13 04:02:00,30.7,18.9,29.94,SSE,158,1.0,3.0,61,0.00,,,0.00,meteohub,2013-02-13 09:02:00,
2013-02-13 04:07:00,30.7,18.9,29.94,SW,225,2.0,2.0,61,0.00,,,0.00,meteohub,2013-02-13 09:07:00,
2013-02-13 04:12:00,30.7,18.9,29.94,WSW,248,0.0,2.0,61,0.00,,,0.00,meteohub,2013-02-13 09:12:00,
2013-02-13 04:17:00,30.7,18.9,29.94,SW,225,0.0,2.0,61,0.00,,,0.00,meteohub,2013-02-13 09:17:00,
2013-02-13 04:22:00,30.7,18.9,29.94,SSW,202,0.0,3.0,61,0.00,,,0.00,meteohub,2013-02-13 09:22:00,
2013-02-13 04:27:00,30.6,18.7,29.94,SSW,202,0.0,3.0,61,0.00,,,0.00,meteohub,2013-02-13 09:27:00,
2013-02-13 04:32:00,30.4,18.5,29.94,SSW,202,0.0,1.0,61,0.00,,,0.00,meteohub,2013-02-13 09:32:00,
2013-02-13 04:37:00,30.4,18.5,29.94,SSE,158,0.0,1.0,61,0.00,,,0.00,meteohub,2013-02-13 09:37:00,
2013-02-13 04:42:00,30.2,18.3,29.94,SSE,158,0.0,1.0,61,0.00,,,0.00,meteohub,2013-02-13 09:42:00,
2013-02-13 04:47:00,30.0,18.1,29.91,SSW,202,1.0,0.0,61,0.00,,,0.00,meteohub,2013-02-13 09:47:00,
2013-02-13 04:52:00,29.5,17.8,29.91,SW,225,2.0,3.0,61,0.00,,,0.00,meteohub,2013-02-13 09:52:00,
2013-02-13 04:57:00,29.3,17.6,29.91,SW,225,3.0,3.0,61,0.00,,,0.00,meteohub,2013-02-13 09:57:00,
2013-02-13 05:02:00,29.1,17.8,29.91,SSW,202,3.0,3.0,62,0.00,,,0.00,meteohub,2013-02-13 10:02:00,
2013-02-13 05:07:00,29.1,17.8,29.91,SSW,202,2.0,3.0,62,0.00,,,0.00,meteohub,2013-02-13 10:07:00,
2013-02-13 05:12:00,28.9,17.6,29.91,South,180,2.0,3.0,62,0.00,,,0.00,meteohub,2013-02-13 10:12:00,
2013-02-13 05:17:00,28.9,17.6,29.91,South,180,1.0,3.0,62,0.00,,,0.00,meteohub,2013-02-13 10:17:00,
2013-02-13 05:22:00,29.1,17.8,29.91,SSW,202,2.0,3.0,62,0.00,,,0.00,meteohub,2013-02-13 10:22:00,
2013-02-13 05:27:00,29.1,18.1,29.91,ESE,112,2.0,4.0,63,0.00,,,0.00,meteohub,2013-02-13 10:27:00,
2013-02-13 05:32:00,29.1,18.1,29.94,SE,135,2.0,4.0,63,0.00,,,0.00,meteohub,2013-02-13 10:32:00,
2013-02-13 05:37:00,29.1,18.1,29.94,SSE,158,2.0,3.0,63,0.00,,,0.00,meteohub,2013-02-13 10:37:00,
2013-02-13 05:42:00,28.9,18.0,29.94,East,90,2.0,3.0,63,0.00,,,0.00,meteohub,2013-02-13 10:42:00,
2013-02-13 05:47:00,28.9,17.6,29.91,ESE,112,2.0,3.0,62,0.00,,,0.00,meteohub,2013-02-13 10:47:00,
2013-02-13 05:52:00,28.8,17.8,29.91,SSE,158,2.0,3.0,63,0.00,,,0.00,meteohub,2013-02-13 10:52:00,
2013-02-13 05:57:00,28.6,17.6,29.91,South,180,0.0,3.0,63,0.00,,,0.00,meteohub,2013-02-13 10:57:00,
2013-02-13 06:02:00,28.4,17.4,29.91,SSE,158,0.0,3.0,63,0.00,,,0.00,meteohub,2013-02-13 11:02:00,
2013-02-13 06:07:00,28.0,17.1,29.91,ESE,112,1.0,3.0,63,0.00,,,0.00,meteohub,2013-02-13 11:07:00,
2013-02-13 06:12:00,28.0,17.4,29.91,South,180,0.0,3.0,64,0.00,,,0.00,meteohub,2013-02-13 11:12:00,
2013-02-13 06:17:00,28.0,17.4,29.91,South,180,0.0,3.0,64,0.00,,,0.00,meteohub,2013-02-13 11:17:00,
2013-02-13 06:22:00,28.0,17.4,29.91,SSE,158,1.0,3.0,64,0.00,,,0.00,meteohub,2013-02-13 11:22:00,
2013-02-13 06:27:00,28.0,17.4,29.91,South,180,1.0,2.0,64,0.00,,,0.00,meteohub,2013-02-13 11:27:00,
2013-02-13 06:32:00,28.0,17.4,29.91,South,180,0.0,2.0,64,0.00,,,0.00,meteohub,2013-02-13 11:32:00,
2013-02-13 06:37:00,27.9,17.2,29.91,SSE,158,0.0,2.0,64,0.00,,,0.00,meteohub,2013-02-13 11:37:00,
2013-02-13 06:42:00,27.9,17.6,29.91,SSW,202,1.0,2.0,65,0.00,,,0.00,meteohub,2013-02-13 11:42:00,
2013-02-13 06:47:00,28.0,17.8,29.94,South,180,0.0,3.0,65,0.00,,,0.00,meteohub,2013-02-13 11:47:00,
2013-02-13 06:52:00,28.0,17.8,29.94,ESE,112,0.0,3.0,65,0.00,,,0.00,meteohub,2013-02-13 11:52:00,
2013-02-13 06:57:00,28.0,17.8,29.94,SSE,158,0.0,3.0,65,0.00,,,0.00,meteohub,2013-02-13 11:57:00,
2013-02-13 07:02:00,27.9,17.6,29.94,South,180,0.0,0.0,65,0.00,,,0.00,meteohub,2013-02-13 12:02:00,
2013-02-13 07:07:00,27.9,17.6,29.94,SE,135,0.0,0.0,65,0.00,,,0.00,meteohub,2013-02-13 12:07:00,
2013-02-13 07:12:00,28.0,17.8,29.94,SSE,158,2.0,0.0,65,0.00,,,0.00,meteohub,2013-02-13 12:12:00,
2013-02-13 07:17:00,28.2,18.0,29.94,SE,135,0.0,2.0,65,0.00,,,0.00,meteohub,2013-02-13 12:17:00,
2013-02-13 07:22:00,28.4,18.1,29.94,SSE,158,0.0,3.0,65,0.00,,,0.00,meteohub,2013-02-13 12:22:00,
2013-02-13 07:27:00,28.4,18.1,29.94,SSE,158,0.0,3.0,65,0.00,,,0.00,meteohub,2013-02-13 12:27:00,
2013-02-13 07:32:00,28.2,18.0,29.94,SSW,202,0.0,2.0,65,0.00,,,0.00,meteohub,2013-02-13 12:32:00,
2013-02-13 07:37:00,28.4,18.1,29.94,ESE,112,2.0,2.0,65,0.00,,,0.00,meteohub,2013-02-13 12:37:00,
2013-02-13 07:42:00,28.4,18.1,29.94,ESE,112,1.0,2.0,65,0.00,,,0.00,meteohub,2013-02-13 12:42:00,
2013-02-13 07:47:00,28.6,18.0,29.91,SSE,158,0.0,2.0,64,0.00,,,0.00,meteohub,2013-02-13 12:47:00,
2013-02-13 07:52:00,28.9,18.3,29.91,SSE,158,0.0,2.0,64,0.00,,,0.00,meteohub,2013-02-13 12:52:00,
2013-02-13 07:57:00,28.9,18.3,29.91,ESE,112,0.0,2.0,64,0.00,,,0.00,meteohub,2013-02-13 12:57:00,
2013-02-13 08:02:00,29.5,18.9,29.91,ESE,112,0.0,2.0,64,0.00,,,0.00,meteohub,2013-02-13 13:02:00,
2013-02-13 08:07:00,29.7,19.0,29.91,ESE,112,0.0,1.0,64,0.00,,,0.00,meteohub,2013-02-13 13:07:00,
2013-02-13 08:12:00,30.7,19.9,29.91,ESE,112,0.0,0.0,64,0.00,,,0.00,meteohub,2013-02-13 13:12:00,
2013-02-13 08:17:00,31.1,20.3,29.91,South,180,1.0,1.0,64,0.00,,,0.00,meteohub,2013-02-13 13:17:00,
2013-02-13 08:22:00,31.5,20.3,29.91,SW,225,4.0,4.0,63,0.00,,,0.00,meteohub,2013-02-13 13:22:00,
2013-02-13 08:27:00,31.8,20.7,29.91,ENE,68,0.0,4.0,63,0.00,,,0.00,meteohub,2013-02-13 13:27:00,
2013-02-13 08:32:00,32.5,21.4,29.94,South,180,1.0,4.0,63,0.00,,,0.00,meteohub,2013-02-13 13:32:00,
2013-02-13 08:37:00,33.1,21.9,29.94,WSW,248,0.0,4.0,63,0.00,,,0.00,meteohub,2013-02-13 13:37:00,
2013-02-13 08:42:00,33.4,21.9,29.94,North,0,0.0,4.0,62,0.00,,,0.00,meteohub,2013-02-13 13:42:00,
2013-02-13 08:47:00,33.8,21.7,29.91,WSW,248,0.0,4.0,61,0.00,,,0.00,meteohub,2013-02-13 13:47:00,
2013-02-13 08:52:00,34.2,21.7,29.91,SSW,202,2.0,4.0,60,0.00,,,0.00,meteohub,2013-02-13 13:52:00,
2013-02-13 08:57:00,34.5,21.7,29.91,NNW,338,2.0,4.0,59,0.00,,,0.00,meteohub,2013-02-13 13:57:00,
2013-02-13 09:02:00,34.9,21.2,29.94,ENE,68,2.0,4.0,57,0.00,,,0.00,meteohub,2013-02-13 14:02:00,
2013-02-13 09:07:00,35.1,21.4,29.94,NNW,338,1.0,4.0,57,0.00,,,0.00,meteohub,2013-02-13 14:07:00,
2013-02-13 09:12:00,35.6,21.6,29.94,NNW,338,3.0,4.0,56,0.00,,,0.00,meteohub,2013-02-13 14:12:00,
2013-02-13 09:17:00,36.1,21.6,29.94,West,270,3.0,5.0,55,0.00,,,0.00,meteohub,2013-02-13 14:17:00,
2013-02-13 09:22:00,36.5,21.9,29.94,WNW,292,3.0,7.0,55,0.00,,,0.00,meteohub,2013-02-13 14:22:00,
2013-02-13 09:27:00,37.0,22.5,29.94,SW,225,3.0,7.0,55,0.00,,,0.00,meteohub,2013-02-13 14:27:00,
2013-02-13 09:32:00,37.4,22.3,29.91,WSW,248,4.0,7.0,54,0.00,,,0.00,meteohub,2013-02-13 14:32:00,
2013-02-13 09:37:00,37.6,22.5,29.91,West,270,2.0,5.0,54,0.00,,,0.00,meteohub,2013-02-13 14:37:00,
2013-02-13 09:42:00,37.9,21.9,29.91,North,0,2.0,5.0,52,0.00,,,0.00,meteohub,2013-02-13 14:42:00,
2013-02-13 09:47:00,37.9,21.6,29.91,WNW,292,2.0,5.0,51,0.00,,,0.00,meteohub,2013-02-13 14:47:00,
2013-02-13 09:52:00,37.9,21.6,29.91,NNW,338,4.0,4.0,51,0.00,,,0.00,meteohub,2013-02-13 14:52:00,
2013-02-13 09:57:00,38.1,21.6,29.91,West,270,1.0,4.0,51,0.00,,,0.00,meteohub,2013-02-13 14:57:00,
2013-02-13 10:02:00,38.1,21.6,29.91,WNW,292,1.0,5.0,51,0.00,,,0.00,meteohub,2013-02-13 15:02:00,
2013-02-13 10:07:00,38.7,22.1,29.91,West,270,3.0,5.0,51,0.00,,,0.00,meteohub,2013-02-13 15:07:00,
2013-02-13 10:12:00,38.5,21.6,29.91,NW,315,3.0,5.0,50,0.00,,,0.00,meteohub,2013-02-13 15:12:00,
2013-02-13 10:17:00,38.1,21.2,29.91,WNW,292,2.0,5.0,50,0.00,,,0.00,meteohub,2013-02-13 15:17:00,
2013-02-13 10:22:00,38.1,21.2,29.91,WNW,292,3.0,5.0,50,0.00,,,0.00,meteohub,2013-02-13 15:22:00,
2013-02-13 10:27:00,37.9,21.6,29.91,West,270,3.0,4.0,51,0.00,,,0.00,meteohub,2013-02-13 15:27:00,
2013-02-13 10:32:00,37.8,20.8,29.88,NE,45,2.0,4.0,50,0.00,,,0.00,meteohub,2013-02-13 15:32:00,
2013-02-13 10:37:00,37.9,21.0,29.88,North,0,3.0,4.0,50,0.00,,,0.00,meteohub,2013-02-13 15:37:00,
2013-02-13 10:42:00,38.1,21.6,29.88,West,270,2.0,4.0,51,0.00,,,0.00,meteohub,2013-02-13 15:42:00,
2013-02-13 10:47:00,37.9,21.6,29.88,NNW,338,2.0,4.0,51,0.00,,,0.00,meteohub,2013-02-13 15:47:00,
2013-02-13 10:52:00,37.8,21.4,29.88,NNW,338,1.0,4.0,51,0.00,,,0.00,meteohub,2013-02-13 15:52:00,
2013-02-13 10:57:00,37.9,21.6,29.88,NW,315,0.0,3.0,51,0.00,,,0.00,meteohub,2013-02-13 15:57:00,
2013-02-13 11:02:00,38.3,21.7,29.88,NNE,22,2.0,3.0,51,0.00,,,0.00,meteohub,2013-02-13 16:02:00,
2013-02-13 11:07:00,38.8,22.3,29.88,West,270,4.0,4.0,51,0.00,,,0.00,meteohub,2013-02-13 16:07:00,
2013-02-13 11:12:00,38.7,21.7,29.88,North,0,3.0,5.0,50,0.00,,,0.00,meteohub,2013-02-13 16:12:00,
2013-02-13 11:17:00,38.8,21.9,29.88,NW,315,0.0,5.0,50,0.00,,,0.00,meteohub,2013-02-13 16:17:00,
2013-02-13 11:22:00,39.2,22.1,29.88,NW,315,2.0,5.0,50,0.00,,,0.00,meteohub,2013-02-13 16:22:00,
2013-02-13 11:27:00,40.3,22.6,29.88,NNW,338,3.0,4.0,49,0.00,,,0.00,meteohub,2013-02-13 16:27:00,
2013-02-13 11:32:00,42.1,24.3,29.88,WSW,248,0.0,4.0,49,0.00,,,0.00,meteohub,2013-02-13 16:32:00,
2013-02-13 11:37:00,42.6,24.8,29.88,SW,225,5.0,5.0,49,0.00,,,0.00,meteohub,2013-02-13 16:37:00,
2013-02-13 11:42:00,41.4,23.2,29.88,NE,45,3.0,5.0,48,0.00,,,0.00,meteohub,2013-02-13 16:42:00,
2013-02-13 11:47:00,40.3,22.6,29.88,SSW,202,3.0,5.0,49,0.00,,,0.00,meteohub,2013-02-13 16:47:00,
2013-02-13 11:52:00,40.1,22.5,29.88,SW,225,3.0,5.0,49,0.00,,,0.00,meteohub,2013-02-13 16:52:00,
2013-02-13 11:57:00,39.9,22.3,29.88,WNW,292,2.0,5.0,49,0.00,,,0.00,meteohub,2013-02-13 16:57:00,
2013-02-13 12:02:00,39.7,21.7,29.88,WSW,248,2.0,5.0,48,0.00,,,0.00,meteohub,2013-02-13 17:02:00,
2013-02-13 12:07:00,39.4,21.9,29.88,WSW,248,4.0,6.0,49,0.00,,,0.00,meteohub,2013-02-13 17:07:00,
2013-02-13 12:12:00,39.4,21.9,29.88,NW,315,0.0,6.0,49,0.00,,,0.00,meteohub,2013-02-13 17:12:00,
2013-02-13 12:17:00,39.4,21.9,29.88,South,180,2.0,5.0,49,0.00,,,0.00,meteohub,2013-02-13 17:17:00,
2013-02-13 12:22:00,40.3,22.6,29.88,WNW,292,3.0,4.0,49,0.00,,,0.00,meteohub,2013-02-13 17:22:00,
2013-02-13 12:27:00,40.3,22.3,29.88,NNW,338,0.0,4.0,48,0.00,,,0.00,meteohub,2013-02-13 17:27:00,
2013-02-13 12:32:00,39.7,22.1,29.88,SW,225,0.0,4.0,49,0.00,,,0.00,meteohub,2013-02-13 17:32:00,
2013-02-13 12:37:00,40.1,22.5,29.88,ESE,112,0.0,4.0,49,0.00,,,0.00,meteohub,2013-02-13 17:37:00,
2013-02-13 12:42:00,40.5,22.8,29.88,NNE,22,3.0,3.0,49,0.00,,,0.00,meteohub,2013-02-13 17:42:00,
2013-02-13 12:47:00,40.1,22.1,29.88,West,270,0.0,3.0,48,0.00,,,0.00,meteohub,2013-02-13 17:47:00,
2013-02-13 12:52:00,39.6,21.6,29.88,WSW,248,2.0,3.0,48,0.00,,,0.00,meteohub,2013-02-13 17:52:00,
2013-02-13 12:57:00,39.4,21.9,29.88,South,180,2.0,3.0,49,0.00,,,0.00,meteohub,2013-02-13 17:57:00,
2013-02-13 13:02:00,39.9,22.3,29.88,WSW,248,4.0,4.0,49,0.00,,,0.00,meteohub,2013-02-13 18:02:00,
2013-02-13 13:07:00,39.9,22.3,29.88,SW,225,2.0,4.0,49,0.00,,,0.00,meteohub,2013-02-13 18:07:00,
2013-02-13 13:12:00,40.3,22.6,29.88,SSW,202,1.0,4.0,49,0.00,,,0.00,meteohub,2013-02-13 18:12:00,
2013-02-13 13:17:00,40.3,22.3,29.88,South,180,3.0,4.0,48,0.00,,,0.00,meteohub,2013-02-13 18:17:00,
2013-02-13 13:22:00,40.1,22.5,29.88,WSW,248,5.0,5.0,49,0.00,,,0.00,meteohub,2013-02-13 18:22:00,
2013-02-13 13:27:00,39.9,21.9,29.88,West,270,1.0,5.0,48,0.00,,,0.00,meteohub,2013-02-13 18:27:00,
2013-02-13 13:32:00,39.9,21.9,29.88,WSW,248,4.0,5.0,48,0.00,,,0.00,meteohub,2013-02-13 18:32:00,
2013-02-13 13:37:00,39.9,21.9,29.88,South,180,2.0,5.0,48,0.00,,,0.00,meteohub,2013-02-13 18:37:00,
2013-02-13 13:42:00,39.9,21.9,29.88,WNW,292,0.0,5.0,48,0.00,,,0.00,meteohub,2013-02-13 18:42:00,
2013-02-13 13:47:00,40.1,22.1,29.88,NW,315,2.0,4.0,48,0.00,,,0.00,meteohub,2013-02-13 18:47:00,
2013-02-13 13:52:00,39.9,21.9,29.88,WNW,292,1.0,5.0,48,0.00,,,0.00,meteohub,2013-02-13 18:52:00,
2013-02-13 13:57:00,39.9,21.9,29.88,SSE,158,3.0,5.0,48,0.00,,,0.00,meteohub,2013-02-13 18:57:00,
2013-02-13 14:02:00,40.3,22.3,29.85,NNW,338,2.0,5.0,48,0.00,,,0.00,meteohub,2013-02-13 19:02:00,
2013-02-13 14:07:00,40.1,22.1,29.85,SW,225,0.0,4.0,48,0.00,,,0.00,meteohub,2013-02-13 19:07:00,
2013-02-13 14:12:00,39.9,21.4,29.85,NNE,22,2.0,4.0,47,0.00,,,0.00,meteohub,2013-02-13 19:12:00,
2013-02-13 14:17:00,39.9,20.8,29.85,North,0,4.0,4.0,46,0.00,,,0.00,meteohub,2013-02-13 19:17:00,
2013-02-13 14:22:00,39.7,20.7,29.85,SE,135,3.0,4.0,46,0.00,,,0.00,meteohub,2013-02-13 19:22:00,
2013-02-13 14:27:00,39.7,20.7,29.85,SW,225,1.0,4.0,46,0.00,,,0.00,meteohub,2013-02-13 19:27:00,
2013-02-13 14:32:00,39.6,20.5,29.85,WNW,292,4.0,7.0,46,0.00,,,0.00,meteohub,2013-02-13 19:32:00,
2013-02-13 14:37:00,39.6,20.5,29.85,SW,225,3.0,7.0,46,0.00,,,0.00,meteohub,2013-02-13 19:37:00,
2013-02-13 14:42:00,39.6,21.0,29.85,SW,225,0.0,7.0,47,0.00,,,0.00,meteohub,2013-02-13 19:42:00,
2013-02-13 14:47:00,39.6,21.0,29.82,South,180,2.0,6.0,47,0.00,,,0.00,meteohub,2013-02-13 19:47:00,
2013-02-13 14:52:00,39.4,20.3,29.82,South,180,4.0,6.0,46,0.00,,,0.00,meteohub,2013-02-13 19:52:00,
2013-02-13 14:57:00,39.2,20.1,29.82,ESE,112,0.0,7.0,46,0.00,,,0.00,meteohub,2013-02-13 19:57:00,
2013-02-13 15:02:00,39.2,20.1,29.82,WSW,248,1.0,7.0,46,0.00,,,0.00,meteohub,2013-02-13 20:02:00,
2013-02-13 15:07:00,39.2,20.1,29.82,SSE,158,2.0,7.0,46,0.00,,,0.00,meteohub,2013-02-13 20:07:00,
2013-02-13 15:12:00,39.0,20.5,29.82,ESE,112,2.0,6.0,47,0.00,,,0.00,meteohub,2013-02-13 20:12:00,
2013-02-13 15:17:00,39.2,20.7,29.82,SW,225,1.0,6.0,47,0.00,,,0.00,meteohub,2013-02-13 20:17:00,
2013-02-13 15:22:00,39.2,20.7,29.82,WNW,292,2.0,6.0,47,0.00,,,0.00,meteohub,2013-02-13 20:22:00,
2013-02-13 15:27:00,38.8,20.3,29.82,SSW,202,3.0,6.0,47,0.00,,,0.00,meteohub,2013-02-13 20:27:00,
2013-02-13 15:32:00,38.8,20.3,29.79,SE,135,0.0,5.0,47,0.00,,,0.00,meteohub,2013-02-13 20:32:00,
2013-02-13 15:37:00,38.7,19.8,29.79,SE,135,2.0,7.0,46,0.00,,,0.00,meteohub,2013-02-13 20:37:00,
2013-02-13 15:42:00,38.7,20.3,29.79,SW,225,0.0,7.0,47,0.00,,,0.00,meteohub,2013-02-13 20:42:00,
2013-02-13 15:47:00,38.7,20.3,29.82,WSW,248,2.0,6.0,47,0.00,,,0.00,meteohub,2013-02-13 20:47:00,
2013-02-13 15:52:00,38.5,20.1,29.82,SW,225,1.0,4.0,47,0.00,,,0.00,meteohub,2013-02-13 20:52:00,
2013-02-13 15:57:00,38.3,19.9,29.82,SSW,202,0.0,3.0,47,0.00,,,0.00,meteohub,2013-02-13 20:57:00,
2013-02-13 16:02:00,38.3,19.9,29.82,SW,225,2.0,3.0,47,0.00,,,0.00,meteohub,2013-02-13 21:02:00,
2013-02-13 16:07:00,38.1,19.8,29.82,South,180,2.0,3.0,47,0.00,,,0.00,meteohub,2013-02-13 21:07:00,
2013-02-13 16:12:00,38.1,19.8,29.82,SSE,158,1.0,2.0,47,0.00,,,0.00,meteohub,2013-02-13 21:12:00,
2013-02-13 16:17:00,37.9,19.6,29.82,South,180,3.0,3.0,47,0.00,,,0.00,meteohub,2013-02-13 21:17:00,
2013-02-13 16:22:00,37.9,19.6,29.82,WSW,248,2.0,3.0,47,0.00,,,0.00,meteohub,2013-02-13 21:22:00,
2013-02-13 16:27:00,37.9,19.6,29.82,South,180,3.0,5.0,47,0.00,,,0.00,meteohub,2013-02-13 21:27:00,
2013-02-13 16:32:00,37.6,19.2,29.82,SW,225,0.0,5.0,47,0.00,,,0.00,meteohub,2013-02-13 21:32:00,
2013-02-13 16:37:00,37.4,19.0,29.82,SSW,202,1.0,4.0,47,0.00,,,0.00,meteohub,2013-02-13 21:37:00,
2013-02-13 16:42:00,37.0,19.2,29.82,SSW,202,0.0,4.0,48,0.00,,,0.00,meteohub,2013-02-13 21:42:00,
2013-02-13 16:47:00,36.9,19.0,29.82,South,180,0.0,2.0,48,0.00,,,0.00,meteohub,2013-02-13 21:47:00,
2013-02-13 16:52:00,36.7,18.9,29.82,South,180,0.0,2.0,48,0.00,,,0.00,meteohub,2013-02-13 21:52:00,
2013-02-13 16:57:00,36.3,18.5,29.82,South,180,0.0,0.0,48,0.00,,,0.00,meteohub,2013-02-13 21:57:00,
2013-02-13 17:02:00,36.1,18.3,29.82,ENE,68,0.0,0.0,48,0.00,,,0.00,meteohub,2013-02-13 22:02:00,
2013-02-13 17:07:00,36.0,18.1,29.82,East,90,0.0,0.0,48,0.00,,,0.00,meteohub,2013-02-13 22:07:00,
2013-02-13 17:12:00,35.8,18.5,29.82,ESE,112,1.0,0.0,49,0.00,,,0.00,meteohub,2013-02-13 22:12:00,
2013-02-13 17:17:00,35.4,18.7,29.82,ESE,112,2.0,2.0,50,0.00,,,0.00,meteohub,2013-02-13 22:17:00,
2013-02-13 17:22:00,35.1,18.3,29.82,SE,135,0.0,2.0,50,0.00,,,0.00,meteohub,2013-02-13 22:22:00,
2013-02-13 17:27:00,35.1,18.3,29.82,ESE,112,0.0,2.0,50,0.00,,,0.00,meteohub,2013-02-13 22:27:00,
2013-02-13 17:32:00,34.9,18.1,29.82,ESE,112,1.0,2.0,50,0.00,,,0.00,meteohub,2013-02-13 22:32:00,
2013-02-13 17:37:00,34.7,18.0,29.82,SE,135,0.0,2.0,50,0.00,,,0.00,meteohub,2013-02-13 22:37:00,
2013-02-13 17:42:00,34.5,18.3,29.82,ESE,112,0.0,2.0,51,0.00,,,0.00,meteohub,2013-02-13 22:42:00,
2013-02-13 17:47:00,34.3,18.1,29.79,ENE,68,1.0,2.0,51,0.00,,,0.00,meteohub,2013-02-13 22:47:00,
2013-02-13 17:52:00,34.0,17.8,29.79,East,90,0.0,2.0,51,0.00,,,0.00,meteohub,2013-02-13 22:52:00,
2013-02-13 17:57:00,33.8,17.6,29.79,SE,135,0.0,2.0,51,0.00,,,0.00,meteohub,2013-02-13 22:57:00,
2013-02-13 18:02:00,33.8,18.1,29.82,ESE,112,0.0,2.0,52,0.00,,,0.00,meteohub,2013-02-13 23:02:00,
2013-02-13 18:07:00,33.6,18.3,29.82,SSE,158,1.0,2.0,53,0.00,,,0.00,meteohub,2013-02-13 23:07:00,
2013-02-13 18:12:00,33.6,18.3,29.82,ESE,112,0.0,2.0,53,0.00,,,0.00,meteohub,2013-02-13 23:12:00,
2013-02-13 18:17:00,33.3,18.0,29.79,East,90,0.0,2.0,53,0.00,,,0.00,meteohub,2013-02-13 23:17:00,
2013-02-13 18:22:00,33.3,18.5,29.79,East,90,0.0,2.0,54,0.00,,,0.00,meteohub,2013-02-13 23:22:00,
2013-02-13 18:27:00,33.1,18.7,29.79,East,90,0.0,1.0,55,0.00,,,0.00,meteohub,2013-02-13 23:27:00,
2013-02-13 18:32:00,32.9,18.5,29.79,East,90,0.0,0.0,55,0.00,,,0.00,meteohub,2013-02-13 23:32:00,
2013-02-13 18:37:00,32.7,18.3,29.79,East,90,0.0,0.0,55,0.00,,,0.00,meteohub,2013-02-13 23:37:00,
2013-02-13 18:42:00,32.5,18.1,29.79,ESE,112,1.0,0.0,55,0.00,,,0.00,meteohub,2013-02-13 23:42:00,
2013-02-13 18:47:00,32.5,18.1,29.82,ESE,112,0.0,2.0,55,0.00,,,0.00,meteohub,2013-02-13 23:47:00,
2013-02-13 18:52:00,32.4,18.9,29.82,ESE,112,0.0,2.0,57,0.00,,,0.00,meteohub,2013-02-13 23:52:00,
2013-02-13 18:57:00,32.2,18.7,29.82,ESE,112,0.0,1.0,57,0.00,,,0.00,meteohub,2013-02-13 23:57:00,
2013-02-13 19:02:00,32.2,18.7,29.82,ESE,112,0.0,0.0,57,0.00,,,0.00,meteohub,2013-02-14 00:02:00,
2013-02-13 19:07:00,32.2,19.0,29.82,SSE,158,0.0,0.0,58,0.00,,,0.00,meteohub,2013-02-14 00:07:00,
2013-02-13 19:12:00,32.0,18.9,29.82,SSE,158,0.0,0.0,58,0.00,,,0.00,meteohub,2013-02-14 00:12:00,
2013-02-13 19:17:00,31.8,18.7,29.82,East,90,0.0,0.0,58,0.00,,,0.00,meteohub,2013-02-14 00:17:00,
2013-02-13 19:22:00,32.0,18.9,29.82,East,90,0.0,0.0,58,0.00,,,0.00,meteohub,2013-02-14 00:22:00,
2013-02-13 19:27:00,31.8,19.2,29.82,East,90,0.0,0.0,59,0.00,,,0.00,meteohub,2013-02-14 00:27:00,
2013-02-13 19:32:00,31.5,19.2,29.82,ESE,112,2.0,0.0,60,0.00,,,0.00,meteohub,2013-02-14 00:32:00,
2013-02-13 19:37:00,31.5,19.2,29.82,ENE,68,0.0,2.0,60,0.00,,,0.00,meteohub,2013-02-14 00:37:00,
2013-02-13 19:42:00,31.6,19.4,29.82,East,90,0.0,2.0,60,0.00,,,0.00,meteohub,2013-02-14 00:42:00,
2013-02-13 19:52:00,31.8,19.6,29.79,ESE,112,0.0,0.0,60,0.00,,,0.00,meteohub,2013-02-14 00:52:00,
2013-02-13 19:57:00,31.8,20.3,29.79,SW,225,0.0,0.0,62,0.00,,,0.00,meteohub,2013-02-14 00:57:00,
2013-02-13 20:02:00,31.8,20.3,29.82,SE,135,0.0,0.0,62,0.00,,,0.00,meteohub,2013-02-14 01:02:00,
2013-02-13 20:07:00,31.8,20.3,29.82,SE,135,0.0,2.0,62,0.00,,,0.00,meteohub,2013-02-14 01:07:00,
2013-02-13 20:12:00,31.6,20.8,29.82,ESE,112,0.0,2.0,64,0.00,,,0.00,meteohub,2013-02-14 01:12:00,
2013-02-13 20:17:00,31.3,20.5,29.82,East,90,0.0,1.0,64,0.00,,,0.00,meteohub,2013-02-14 01:17:00,
2013-02-13 20:22:00,31.3,20.1,29.82,ESE,112,0.0,0.0,63,0.00,,,0.00,meteohub,2013-02-14 01:22:00,
2013-02-13 20:27:00,31.3,20.1,29.82,ESE,112,0.0,0.0,63,0.00,,,0.00,meteohub,2013-02-14 01:27:00,
2013-02-13 20:32:00,31.3,20.5,29.82,East,90,0.0,0.0,64,0.00,,,0.00,meteohub,2013-02-14 01:32:00,
2013-02-13 20:37:00,31.3,20.1,29.82,East,90,0.0,0.0,63,0.00,,,0.00,meteohub,2013-02-14 01:37:00,
2013-02-13 20:42:00,31.5,20.3,29.82,ENE,68,0.0,0.0,63,0.00,,,0.00,meteohub,2013-02-14 01:42:00,
2013-02-13 20:47:00,31.5,20.7,29.79,East,90,0.0,0.0,64,0.00,,,0.00,meteohub,2013-02-14 01:47:00,
2013-02-13 20:52:00,31.5,20.3,29.79,ENE,68,0.0,0.0,63,0.00,,,0.00,meteohub,2013-02-14 01:52:00,
2013-02-13 20:57:00,31.5,21.0,29.79,East,90,0.0,0.0,65,0.00,,,0.00,meteohub,2013-02-14 01:57:00,
2013-02-13 21:02:00,31.5,20.7,29.79,ENE,68,0.0,0.0,64,0.00,,,0.00,meteohub,2013-02-14 02:02:00,
2013-02-13 21:07:00,31.6,20.5,29.79,East,90,0.0,0.0,63,0.00,,,0.00,meteohub,2013-02-14 02:07:00,
2013-02-13 21:12:00,31.8,21.0,29.79,East,90,0.0,0.0,64,0.00,,,0.00,meteohub,2013-02-14 02:12:00,
2013-02-13 21:17:00,31.6,21.2,29.82,East,90,0.0,0.0,65,0.00,,,0.00,meteohub,2013-02-14 02:17:00,
2013-02-13 21:22:00,31.5,21.0,29.82,East,90,0.0,0.0,65,0.00,,,0.00,meteohub,2013-02-14 02:22:00,
2013-02-13 21:27:00,31.5,21.0,29.82,East,90,0.0,0.0,65,0.00,,,0.00,meteohub,2013-02-14 02:27:00,
2013-02-13 21:32:00,31.6,20.8,29.79,NNE,22,0.0,0.0,64,0.00,,,0.00,meteohub,2013-02-14 02:32:00,
2013-02-13 21:37:00,31.8,20.7,29.79,NNE,22,0.0,0.0,63,0.00,,,0.00,meteohub,2013-02-14 02:37:00,
2013-02-13 21:42:00,32.2,20.7,29.79,North,0,0.0,2.0,62,0.00,,,0.00,meteohub,2013-02-14 02:42:00,
2013-02-13 21:47:00,32.4,20.5,29.79,North,0,0.0,2.0,61,0.00,,,0.00,meteohub,2013-02-14 02:47:00,
2013-02-13 21:52:00,32.5,20.7,29.79,NE,45,0.0,2.0,61,0.00,,,0.00,meteohub,2013-02-14 02:52:00,
2013-02-13 21:57:00,32.7,20.5,29.79,South,180,0.0,0.0,60,0.00,,,0.00,meteohub,2013-02-14 02:57:00,
2013-02-13 22:02:00,32.7,19.9,29.79,South,180,0.0,0.0,59,0.00,,,0.00,meteohub,2013-02-14 03:02:00,
2013-02-13 22:07:00,32.7,20.5,29.79,SSW,202,0.0,0.0,60,0.00,,,0.00,meteohub,2013-02-14 03:07:00,
2013-02-13 22:12:00,32.7,20.5,29.79,SSW,202,0.0,0.0,60,0.00,,,0.00,meteohub,2013-02-14 03:12:00,
2013-02-13 22:17:00,32.5,20.3,29.79,ENE,68,0.0,0.0,60,0.00,,,0.00,meteohub,2013-02-14 03:17:00,
2013-02-13 22:22:00,32.5,19.8,29.79,ESE,112,0.0,0.0,59,0.00,,,0.00,meteohub,2013-02-14 03:22:00,
2013-02-13 22:27:00,32.5,19.8,29.79,SE,135,0.0,0.0,59,0.00,,,0.00,meteohub,2013-02-14 03:27:00,
2013-02-13 22:32:00,32.5,20.3,29.79,SW,225,0.0,0.0,60,0.00,,,0.00,meteohub,2013-02-14 03:32:00,
2013-02-13 22:37:00,32.5,20.7,29.79,NE,45,0.0,0.0,61,0.00,,,0.00,meteohub,2013-02-14 03:37:00,
2013-02-13 22:42:00,32.4,20.1,29.79,NE,45,0.0,0.0,60,0.00,,,0.00,meteohub,2013-02-14 03:42:00,
2013-02-13 22:47:00,32.5,19.8,29.76,NNE,22,1.0,2.0,59,0.00,,,0.00,meteohub,2013-02-14 03:47:00,
2013-02-13 22:52:00,32.7,19.9,29.76,East,90,0.0,2.0,59,0.00,,,0.00,meteohub,2013-02-14 03:52:00,
2013-02-13 22:57:00,32.7,19.6,29.76,ENE,68,0.0,2.0,58,0.00,,,0.00,meteohub,2013-02-14 03:57:00,
2013-02-13 23:02:00,32.7,19.6,29.76,ESE,112,0.0,2.0,58,0.00,,,0.00,meteohub,2013-02-14 04:02:00,
2013-02-13 23:07:00,33.1,19.6,29.76,ENE,68,0.0,0.0,57,0.00,,,0.00,meteohub,2013-02-14 04:07:00,
2013-02-13 23:12:00,33.1,19.6,29.76,ENE,68,0.0,0.0,57,0.00,,,0.00,meteohub,2013-02-14 04:12:00,
2013-02-13 23:17:00,33.1,19.6,29.76,NW,315,0.0,0.0,57,0.00,,,0.00,meteohub,2013-02-14 04:17:00,
2013-02-13 23:22:00,33.1,19.6,29.76,North,0,0.0,0.0,57,0.00,,,0.00,meteohub,2013-02-14 04:22:00,
2013-02-13 23:27:00,33.1,19.6,29.76,NW,315,3.0,3.0,57,0.00,,,0.00,meteohub,2013-02-14 04:27:00,
2013-02-13 23:32:00,33.1,19.2,29.76,NNW,338,1.0,3.0,56,0.00,,,0.00,meteohub,2013-02-14 04:32:00,
2013-02-13 23:37:00,33.1,19.2,29.76,North,0,2.0,3.0,56,0.00,,,0.00,meteohub,2013-02-14 04:37:00,
2013-02-13 23:42:00,33.1,18.7,29.76,North,0,4.0,4.0,55,0.00,,,0.00,meteohub,2013-02-14 04:42:00,
2013-02-13 23:47:00,33.3,18.5,29.76,North,0,2.0,4.0,54,0.00,,,0.00,meteohub,2013-02-14 04:47:00,
2013-02-13 23:52:00,33.3,18.5,29.76,NW,315,2.0,4.0,54,0.00,,,0.00,meteohub,2013-02-14 04:52:00,
2013-02-13 23:57:00,33.3,18.5,29.76,WNW,292,2.0,4.0,54,0.00,,,0.00,meteohub,2013-02-14 04:57:00,